Airfield :
LOGIN :

Register | Disclaimer

   EN    FR    IT 

 










Legend :    VFR   Marginal VFR   IFR   Intensive IFR   Very Intensive IFR
Visi :
Ceiling :
>= 8 km
>= 3000ft
5 to 8 km
1000 to 3000 ft
1500m to 5 km
500 to 1000 ft
800 to 1500m
200 to 500 ft
< 800m
< 200 ft
Symbols :   Thunderstorms  Fog  Heavy snow  Heavy precipitations  Wind > 20 kt
SIGMETs :     Misc.  Thunderstorms  Icing  Turbulence  Mountain Waves  Volcanic Ashes







- Airport Elevation : 236 ft
- IATA code : MMX


ESMS - Malmö Sturup

CURRENT METAR :
  • 211750Z 24014KT 9999 FEW034 SCT078 14/09 Q1001

EXPIRED METARs :
  • 211720Z 25017KT CAVOK 13/08 Q1000
  • 211650Z 24012KT CAVOK 14/09 Q1000
  • 211620Z 25013KT 9999 FEW034 SCT084 14/10 Q1001
  • 211550Z 25008KT CAVOK 13/11 Q1000
  • 211520Z 26010KT 9999 SCT032 13/11 Q1000

TAF TAF ESMS
Valid from the 21 at 18:00 until the 22 at 18:00 UTC


211701Z 2118/2218 25015KT 9999 FEW030
TEMPO 2118/2218 25018G30KT 4000 SHRA BKN012 SCT020CB
No reported NOTAMs for that airfield.
2 SIGMETs reported for the Sweden FIR (ESAA) :
 
Embedded thunderstorms
ESAA SIGMET 4 VALID 211730/212000 ESSA
ESAA SWEDEN FIR EMBD TS FCST WI N5905 E01831 - N5600 E01751 - N5519 E01639 - N5827 E01705 - N5905 E01831 TOP FL320 MOV NNE 30 KT NC=
Embedded thunderstorms
ESAA SIGMET 3 VALID 211515/211730 ESSA
ESAA SWEDEN FIR EMBD TS OBS AT 1510Z WI N6003 E01543 - N6004 E01643 - N5444 E01519 - N5445 E01417 - N6003 E01543 TOP FL320 MOV NE 30KT INTSF=



MET'MAP, your aeronautical weather chart ! - Copyright ORBIFLY December 2007 - Disclaimer

ORBIFLY MET'MAP TEAM :

Programming & Development : Alexandra Zaïnal
Concept & Development : Baudouin d'Aumeries
Co-Development & Prog : Marc-Olivier Méhu
Technical & hardware support : Manuel Goepfert

Contact : metmap@orbifly.com




SOURCES & CREDITS :

   NOAA